sensor_id;sensor_type;location;lat;lon;timestamp;P1;durP1;ratioP1;P2;durP2;ratioP2
58472;SDS011;44775;51.564;5.460;2023-02-28T00:01:28;16.95;;;12.13;;
58472;SDS011;44775;51.564;5.460;2023-02-28T00:03:53;17.58;;;12.68;;
58472;SDS011;44775;51.564;5.460;2023-02-28T00:06:20;15.80;;;11.98;;
58472;SDS011;44775;51.564;5.460;2023-02-28T00:08:45;24.25;;;12.90;;
58472;SDS011;44775;51.564;5.460;2023-02-28T00:11:11;18.45;;;12.52;;
58472;SDS011;44775;51.564;5.460;2023-02-28T00:13:41;16.88;;;11.85;;
58472;SDS011;44775;51.564;5.460;2023-02-28T00:16:12;16.13;;;12.18;;
58472;SDS011;44775;51.564;5.460;2023-02-28T00:18:39;17.33;;;11.55;;
58472;SDS011;44775;51.564;5.460;2023-02-28T00:21:06;17.80;;;11.95;;
58472;SDS011;44775;51.564;5.460;2023-02-28T00:23:31;16.35;;;11.50;;
58472;SDS011;44775;51.564;5.460;2023-02-28T00:25:57;16.00;;;11.73;;
58472;SDS011;44775;51.564;5.460;2023-02-28T00:28:22;15.65;;;10.93;;
58472;SDS011;44775;51.564;5.460;2023-02-28T00:30:48;14.63;;;11.25;;
58472;SDS011;44775;51.564;5.460;2023-02-28T00:33:13;16.95;;;11.50;;
58472;SDS011;44775;51.564;5.460;2023-02-28T00:35:39;15.05;;;11.18;;
58472;SDS011;44775;51.564;5.460;2023-02-28T00:38:04;18.70;;;12.13;;
58472;SDS011;44775;51.564;5.460;2023-02-28T00:40:30;16.35;;;11.50;;
58472;SDS011;44775;51.564;5.460;2023-02-28T00:42:55;17.30;;;10.85;;
58472;SDS011;44775;51.564;5.460;2023-02-28T00:45:21;14.85;;;11.25;;
58472;SDS011;44775;51.564;5.460;2023-02-28T00:47:46;14.88;;;11.65;;
58472;SDS011;44775;51.564;5.460;2023-02-28T00:50:14;18.40;;;11.82;;
58472;SDS011;44775;51.564;5.460;2023-02-28T00:52:41;14.65;;;12.10;;
58472;SDS011;44775;51.564;5.460;2023-02-28T00:55:06;14.70;;;11.52;;
58472;SDS011;44775;51.564;5.460;2023-02-28T00:57:32;15.88;;;11.57;;
58472;SDS011;44775;51.564;5.460;2023-02-28T00:59:57;12.93;;;9.35;;
58472;SDS011;44775;51.564;5.460;2023-02-28T01:02:22;14.18;;;10.35;;
58472;SDS011;44775;51.564;5.460;2023-02-28T01:04:48;15.15;;;10.88;;
58472;SDS011;44775;51.564;5.460;2023-02-28T01:07:13;17.50;;;11.02;;
58472;SDS011;44775;51.564;5.460;2023-02-28T01:09:39;17.23;;;10.88;;
58472;SDS011;44775;51.564;5.460;2023-02-28T01:12:06;18.63;;;11.10;;
58472;SDS011;44775;51.564;5.460;2023-02-28T01:14:32;22.05;;;11.32;;
58472;SDS011;44775;51.564;5.460;2023-02-28T01:16:57;15.73;;;10.95;;
58472;SDS011;44775;51.564;5.460;2023-02-28T01:19:23;19.13;;;11.65;;
58472;SDS011;44775;51.564;5.460;2023-02-28T01:21:48;15.82;;;11.50;;
58472;SDS011;44775;51.564;5.460;2023-02-28T01:24:13;18.60;;;11.65;;
58472;SDS011;44775;51.564;5.460;2023-02-28T01:26:39;16.73;;;11.20;;
58472;SDS011;44775;51.564;5.460;2023-02-28T01:29:04;17.45;;;11.88;;
58472;SDS011;44775;51.564;5.460;2023-02-28T01:31:29;17.75;;;11.43;;
58472;SDS011;44775;51.564;5.460;2023-02-28T01:33:55;16.83;;;11.60;;
58472;SDS011;44775;51.564;5.460;2023-02-28T01:36:21;15.35;;;11.32;;
58472;SDS011;44775;51.564;5.460;2023-02-28T01:38:48;16.08;;;12.18;;
58472;SDS011;44775;51.564;5.460;2023-02-28T01:41:16;16.05;;;11.88;;
58472;SDS011;44775;51.564;5.460;2023-02-28T01:46:09;16.70;;;12.10;;
58472;SDS011;44775;51.564;5.460;2023-02-28T01:48:40;18.75;;;11.88;;
58472;SDS011;44775;51.564;5.460;2023-02-28T01:51:13;17.10;;;12.02;;
58472;SDS011;44775;51.564;5.460;2023-02-28T01:53:44;18.60;;;11.65;;
58472;SDS011;44775;51.564;5.460;2023-02-28T01:56:13;17.10;;;11.93;;
58472;SDS011;44775;51.564;5.460;2023-02-28T01:58:46;15.90;;;11.73;;
58472;SDS011;44775;51.564;5.460;2023-02-28T02:01:12;17.02;;;12.02;;
58472;SDS011;44775;51.564;5.460;2023-02-28T02:03:46;16.85;;;12.00;;
58472;SDS011;44775;51.564;5.460;2023-02-28T02:06:22;17.85;;;12.70;;
58472;SDS011;44775;51.564;5.460;2023-02-28T02:08:49;17.00;;;12.18;;
58472;SDS011;44775;51.564;5.460;2023-02-28T02:11:16;15.90;;;11.57;;
58472;SDS011;44775;51.564;5.460;2023-02-28T02:16:32;15.80;;;12.15;;
58472;SDS011;44775;51.564;5.460;2023-02-28T02:19:30;17.73;;;12.50;;
58472;SDS011;44775;51.564;5.460;2023-02-28T02:25:12;16.98;;;11.73;;
58472;SDS011;44775;51.564;5.460;2023-02-28T02:36:07;17.38;;;12.32;;
58472;SDS011;44775;51.564;5.460;2023-02-28T02:41:13;16.20;;;12.23;;
58472;SDS011;44775;51.564;5.460;2023-02-28T02:43:48;16.45;;;11.93;;
58472;SDS011;44775;51.564;5.460;2023-02-28T02:46:19;16.38;;;12.40;;
58472;SDS011;44775;51.564;5.460;2023-02-28T02:48:48;16.23;;;12.45;;
58472;SDS011;44775;51.564;5.460;2023-02-28T02:51:17;17.00;;;11.82;;
58472;SDS011;44775;51.564;5.460;2023-02-28T02:53:48;17.10;;;11.63;;
58472;SDS011;44775;51.564;5.460;2023-02-28T02:56:28;19.38;;;11.95;;
58472;SDS011;44775;51.564;5.460;2023-02-28T02:58:57;15.50;;;11.52;;
58472;SDS011;44775;51.564;5.460;2023-02-28T03:01:26;16.13;;;11.73;;
58472;SDS011;44775;51.564;5.460;2023-02-28T03:03:58;15.13;;;11.63;;
58472;SDS011;44775;51.564;5.460;2023-02-28T03:06:26;17.75;;;12.10;;
58472;SDS011;44775;51.564;5.460;2023-02-28T03:08:51;17.15;;;11.80;;
58472;SDS011;44775;51.564;5.460;2023-02-28T03:11:17;17.13;;;11.77;;
58472;SDS011;44775;51.564;5.460;2023-02-28T03:19:28;14.63;;;11.05;;
58472;SDS011;44775;51.564;5.460;2023-02-28T03:22:29;16.75;;;11.23;;
58472;SDS011;44775;51.564;5.460;2023-02-28T03:30:15;14.95;;;10.25;;
58472;SDS011;44775;51.564;5.460;2023-02-28T03:33:15;14.73;;;10.85;;
58472;SDS011;44775;51.564;5.460;2023-02-28T03:35:48;15.73;;;10.20;;
58472;SDS011;44775;51.564;5.460;2023-02-28T03:38:27;15.63;;;10.27;;
58472;SDS011;44775;51.564;5.460;2023-02-28T03:41:00;14.27;;;10.20;;
58472;SDS011;44775;51.564;5.460;2023-02-28T03:43:32;13.15;;;9.80;;
58472;SDS011;44775;51.564;5.460;2023-02-28T03:46:03;16.15;;;9.98;;
58472;SDS011;44775;51.564;5.460;2023-02-28T03:48:39;14.30;;;9.32;;
58472;SDS011;44775;51.564;5.460;2023-02-28T03:51:18;15.98;;;9.43;;
58472;SDS011;44775;51.564;5.460;2023-02-28T03:54:08;13.75;;;9.45;;
58472;SDS011;44775;51.564;5.460;2023-02-28T03:56:51;13.10;;;9.77;;
58472;SDS011;44775;51.564;5.460;2023-02-28T03:59:30;11.70;;;9.02;;
58472;SDS011;44775;51.564;5.460;2023-02-28T04:02:00;16.08;;;9.73;;
58472;SDS011;44775;51.564;5.460;2023-02-28T04:04:26;14.55;;;10.00;;
58472;SDS011;44775;51.564;5.460;2023-02-28T04:06:52;14.27;;;9.68;;
58472;SDS011;44775;51.564;5.460;2023-02-28T04:09:25;13.38;;;9.20;;
58472;SDS011;44775;51.564;5.460;2023-02-28T04:11:51;12.52;;;9.20;;
58472;SDS011;44775;51.564;5.460;2023-02-28T04:14:17;14.15;;;9.40;;
58472;SDS011;44775;51.564;5.460;2023-02-28T04:16:43;12.48;;;9.55;;
58472;SDS011;44775;51.564;5.460;2023-02-28T04:19:09;14.95;;;9.45;;
58472;SDS011;44775;51.564;5.460;2023-02-28T04:21:40;12.50;;;9.13;;
58472;SDS011;44775;51.564;5.460;2023-02-28T04:24:08;15.27;;;9.27;;
58472;SDS011;44775;51.564;5.460;2023-02-28T04:26:39;13.65;;;8.40;;
58472;SDS011;44775;51.564;5.460;2023-02-28T04:29:06;9.75;;;8.55;;
58472;SDS011;44775;51.564;5.460;2023-02-28T04:31:32;13.43;;;8.77;;
58472;SDS011;44775;51.564;5.460;2023-02-28T04:33:58;15.10;;;8.93;;
58472;SDS011;44775;51.564;5.460;2023-02-28T04:36:25;12.98;;;8.90;;
58472;SDS011;44775;51.564;5.460;2023-02-28T04:38:50;13.05;;;8.43;;
58472;SDS011;44775;51.564;5.460;2023-02-28T04:41:16;11.30;;;8.82;;
58472;SDS011;44775;51.564;5.460;2023-02-28T04:43:42;14.02;;;8.55;;
58472;SDS011;44775;51.564;5.460;2023-02-28T04:46:07;11.35;;;9.68;;
58472;SDS011;44775;51.564;5.460;2023-02-28T04:48:34;13.38;;;8.85;;
58472;SDS011;44775;51.564;5.460;2023-02-28T04:51:12;11.80;;;8.10;;
58472;SDS011;44775;51.564;5.460;2023-02-28T04:53:39;13.70;;;9.00;;
58472;SDS011;44775;51.564;5.460;2023-02-28T04:56:06;10.52;;;8.10;;
58472;SDS011;44775;51.564;5.460;2023-02-28T04:58:33;14.52;;;9.25;;
58472;SDS011;44775;51.564;5.460;2023-02-28T05:01:05;12.30;;;8.43;;
58472;SDS011;44775;51.564;5.460;2023-02-28T05:03:40;11.07;;;8.45;;
58472;SDS011;44775;51.564;5.460;2023-02-28T05:06:06;11.57;;;8.52;;
58472;SDS011;44775;51.564;5.460;2023-02-28T05:08:32;11.50;;;8.18;;
58472;SDS011;44775;51.564;5.460;2023-02-28T05:10:57;12.00;;;8.45;;
58472;SDS011;44775;51.564;5.460;2023-02-28T05:13:23;10.57;;;7.80;;
58472;SDS011;44775;51.564;5.460;2023-02-28T05:15:49;10.90;;;8.40;;
58472;SDS011;44775;51.564;5.460;2023-02-28T05:18:14;16.15;;;8.45;;
58472;SDS011;44775;51.564;5.460;2023-02-28T05:20:39;13.00;;;7.80;;
58472;SDS011;44775;51.564;5.460;2023-02-28T05:23:05;11.25;;;8.07;;
58472;SDS011;44775;51.564;5.460;2023-02-28T05:25:30;14.13;;;8.15;;
58472;SDS011;44775;51.564;5.460;2023-02-28T05:27:55;11.50;;;8.80;;
58472;SDS011;44775;51.564;5.460;2023-02-28T05:30:20;12.57;;;9.18;;
58472;SDS011;44775;51.564;5.460;2023-02-28T05:32:49;14.40;;;8.57;;
58472;SDS011;44775;51.564;5.460;2023-02-28T05:37:40;11.05;;;8.73;;
58472;SDS011;44775;51.564;5.460;2023-02-28T05:40:06;13.30;;;8.77;;
58472;SDS011;44775;51.564;5.460;2023-02-28T05:42:35;10.93;;;8.55;;
58472;SDS011;44775;51.564;5.460;2023-02-28T05:45:00;12.57;;;8.35;;
58472;SDS011;44775;51.564;5.460;2023-02-28T05:47:25;15.68;;;10.07;;
58472;SDS011;44775;51.564;5.460;2023-02-28T05:49:51;12.32;;;9.60;;
58472;SDS011;44775;51.564;5.460;2023-02-28T05:52:16;13.88;;;9.90;;
58472;SDS011;44775;51.564;5.460;2023-02-28T05:54:41;14.30;;;9.50;;
58472;SDS011;44775;51.564;5.460;2023-02-28T05:57:06;14.82;;;10.18;;
58472;SDS011;44775;51.564;5.460;2023-02-28T05:59:32;12.02;;;9.15;;
58472;SDS011;44775;51.564;5.460;2023-02-28T06:01:57;13.05;;;9.57;;
58472;SDS011;44775;51.564;5.460;2023-02-28T06:04:22;12.30;;;9.50;;
58472;SDS011;44775;51.564;5.460;2023-02-28T06:06:48;16.30;;;9.80;;
58472;SDS011;44775;51.564;5.460;2023-02-28T06:09:14;13.98;;;10.43;;
58472;SDS011;44775;51.564;5.460;2023-02-28T06:11:40;12.98;;;9.88;;
58472;SDS011;44775;51.564;5.460;2023-02-28T06:14:06;13.25;;;9.85;;
58472;SDS011;44775;51.564;5.460;2023-02-28T06:16:32;14.27;;;9.60;;
58472;SDS011;44775;51.564;5.460;2023-02-28T06:18:59;12.73;;;9.80;;
58472;SDS011;44775;51.564;5.460;2023-02-28T06:21:26;15.48;;;10.38;;
58472;SDS011;44775;51.564;5.460;2023-02-28T06:23:52;13.52;;;9.60;;
58472;SDS011;44775;51.564;5.460;2023-02-28T06:26:18;13.07;;;9.73;;
58472;SDS011;44775;51.564;5.460;2023-02-28T06:28:44;13.63;;;9.93;;
58472;SDS011;44775;51.564;5.460;2023-02-28T06:31:10;12.55;;;9.75;;
58472;SDS011;44775;51.564;5.460;2023-02-28T06:33:37;13.65;;;9.63;;
58472;SDS011;44775;51.564;5.460;2023-02-28T06:36:04;15.10;;;9.77;;
58472;SDS011;44775;51.564;5.460;2023-02-28T06:38:30;13.45;;;9.40;;
58472;SDS011;44775;51.564;5.460;2023-02-28T06:40:56;11.93;;;9.13;;
58472;SDS011;44775;51.564;5.460;2023-02-28T06:43:23;13.63;;;9.88;;
58472;SDS011;44775;51.564;5.460;2023-02-28T06:45:49;13.02;;;9.77;;
58472;SDS011;44775;51.564;5.460;2023-02-28T06:48:15;13.82;;;9.25;;
58472;SDS011;44775;51.564;5.460;2023-02-28T06:50:40;15.27;;;10.02;;
58472;SDS011;44775;51.564;5.460;2023-02-28T06:53:06;13.80;;;9.77;;
58472;SDS011;44775;51.564;5.460;2023-02-28T06:55:31;13.93;;;9.23;;
58472;SDS011;44775;51.564;5.460;2023-02-28T06:57:57;13.88;;;9.75;;
58472;SDS011;44775;51.564;5.460;2023-02-28T07:00:23;11.90;;;9.35;;
58472;SDS011;44775;51.564;5.460;2023-02-28T07:02:49;12.02;;;9.27;;
58472;SDS011;44775;51.564;5.460;2023-02-28T07:05:15;14.35;;;9.88;;
58472;SDS011;44775;51.564;5.460;2023-02-28T07:07:40;11.15;;;8.90;;
58472;SDS011;44775;51.564;5.460;2023-02-28T07:10:09;12.52;;;9.80;;
58472;SDS011;44775;51.564;5.460;2023-02-28T07:12:39;13.52;;;8.60;;
58472;SDS011;44775;51.564;5.460;2023-02-28T07:15:05;9.98;;;7.28;;
58472;SDS011;44775;51.564;5.460;2023-02-28T07:17:30;13.85;;;8.70;;
58472;SDS011;44775;51.564;5.460;2023-02-28T07:19:56;12.75;;;7.97;;
58472;SDS011;44775;51.564;5.460;2023-02-28T07:22:21;9.73;;;7.78;;
58472;SDS011;44775;51.564;5.460;2023-02-28T07:24:47;11.63;;;8.35;;
58472;SDS011;44775;51.564;5.460;2023-02-28T07:27:12;10.45;;;7.63;;
58472;SDS011;44775;51.564;5.460;2023-02-28T07:29:37;12.02;;;7.93;;
58472;SDS011;44775;51.564;5.460;2023-02-28T07:32:03;10.05;;;7.50;;
58472;SDS011;44775;51.564;5.460;2023-02-28T07:34:28;11.52;;;7.63;;
58472;SDS011;44775;51.564;5.460;2023-02-28T07:36:54;14.10;;;8.30;;
58472;SDS011;44775;51.564;5.460;2023-02-28T07:39:20;9.93;;;8.20;;
58472;SDS011;44775;51.564;5.460;2023-02-28T07:41:46;12.32;;;8.10;;
58472;SDS011;44775;51.564;5.460;2023-02-28T07:44:12;10.45;;;8.00;;
58472;SDS011;44775;51.564;5.460;2023-02-28T07:46:37;11.15;;;8.10;;
58472;SDS011;44775;51.564;5.460;2023-02-28T07:49:03;12.10;;;8.82;;
58472;SDS011;44775;51.564;5.460;2023-02-28T07:51:29;12.25;;;8.55;;
58472;SDS011;44775;51.564;5.460;2023-02-28T07:53:55;15.60;;;9.32;;
58472;SDS011;44775;51.564;5.460;2023-02-28T07:56:21;13.90;;;8.55;;
58472;SDS011;44775;51.564;5.460;2023-02-28T07:58:46;12.95;;;7.40;;
58472;SDS011;44775;51.564;5.460;2023-02-28T08:01:12;12.18;;;7.25;;
58472;SDS011;44775;51.564;5.460;2023-02-28T08:03:38;9.27;;;7.22;;
58472;SDS011;44775;51.564;5.460;2023-02-28T08:06:04;10.32;;;6.68;;
58472;SDS011;44775;51.564;5.460;2023-02-28T08:08:31;8.32;;;7.18;;
58472;SDS011;44775;51.564;5.460;2023-02-28T08:11:00;12.20;;;6.95;;
58472;SDS011;44775;51.564;5.460;2023-02-28T08:13:27;6.97;;;5.63;;
58472;SDS011;44775;51.564;5.460;2023-02-28T08:15:54;7.95;;;5.63;;
58472;SDS011;44775;51.564;5.460;2023-02-28T08:18:20;5.35;;;4.60;;
58472;SDS011;44775;51.564;5.460;2023-02-28T08:20:45;5.10;;;4.60;;
58472;SDS011;44775;51.564;5.460;2023-02-28T08:23:11;5.32;;;4.38;;
58472;SDS011;44775;51.564;5.460;2023-02-28T08:25:36;5.00;;;4.50;;
58472;SDS011;44775;51.564;5.460;2023-02-28T08:28:01;5.22;;;4.20;;
58472;SDS011;44775;51.564;5.460;2023-02-28T08:30:27;7.75;;;5.20;;
58472;SDS011;44775;51.564;5.460;2023-02-28T08:32:52;5.03;;;4.53;;
58472;SDS011;44775;51.564;5.460;2023-02-28T08:35:18;8.18;;;4.15;;
58472;SDS011;44775;51.564;5.460;2023-02-28T08:37:43;6.13;;;3.90;;
58472;SDS011;44775;51.564;5.460;2023-02-28T08:40:08;4.68;;;3.85;;
58472;SDS011;44775;51.564;5.460;2023-02-28T08:42:34;5.78;;;4.13;;
58472;SDS011;44775;51.564;5.460;2023-02-28T08:45:00;7.22;;;4.45;;
58472;SDS011;44775;51.564;5.460;2023-02-28T08:47:26;5.18;;;4.47;;
58472;SDS011;44775;51.564;5.460;2023-02-28T08:49:51;10.18;;;4.25;;
58472;SDS011;44775;51.564;5.460;2023-02-28T08:52:16;8.95;;;3.83;;
58472;SDS011;44775;51.564;5.460;2023-02-28T08:54:42;4.65;;;4.03;;
58472;SDS011;44775;51.564;5.460;2023-02-28T08:57:07;5.50;;;4.40;;
58472;SDS011;44775;51.564;5.460;2023-02-28T08:59:32;8.77;;;4.53;;
58472;SDS011;44775;51.564;5.460;2023-02-28T09:01:58;4.38;;;3.60;;
58472;SDS011;44775;51.564;5.460;2023-02-28T09:04:23;6.50;;;3.67;;
58472;SDS011;44775;51.564;5.460;2023-02-28T09:06:48;3.10;;;2.80;;
58472;SDS011;44775;51.564;5.460;2023-02-28T09:09:14;5.60;;;3.47;;
58472;SDS011;44775;51.564;5.460;2023-02-28T09:11:40;4.72;;;3.38;;
58472;SDS011;44775;51.564;5.460;2023-02-28T09:14:05;9.60;;;3.55;;
58472;SDS011;44775;51.564;5.460;2023-02-28T09:16:31;3.42;;;3.13;;
58472;SDS011;44775;51.564;5.460;2023-02-28T09:18:57;5.20;;;3.05;;
58472;SDS011;44775;51.564;5.460;2023-02-28T09:21:23;6.10;;;4.40;;
58472;SDS011;44775;51.564;5.460;2023-02-28T09:23:48;5.53;;;3.60;;
58472;SDS011;44775;51.564;5.460;2023-02-28T09:26:19;4.65;;;3.10;;
58472;SDS011;44775;51.564;5.460;2023-02-28T09:28:47;6.30;;;3.80;;
58472;SDS011;44775;51.564;5.460;2023-02-28T09:31:17;3.33;;;3.03;;
58472;SDS011;44775;51.564;5.460;2023-02-28T09:33:45;4.35;;;3.20;;
58472;SDS011;44775;51.564;5.460;2023-02-28T09:36:11;5.38;;;3.13;;
58472;SDS011;44775;51.564;5.460;2023-02-28T09:38:37;7.95;;;2.83;;
58472;SDS011;44775;51.564;5.460;2023-02-28T09:41:03;4.53;;;3.38;;
58472;SDS011;44775;51.564;5.460;2023-02-28T09:43:35;4.50;;;3.00;;
58472;SDS011;44775;51.564;5.460;2023-02-28T09:46:11;3.40;;;2.92;;
58472;SDS011;44775;51.564;5.460;2023-02-28T09:48:50;5.15;;;3.05;;
58472;SDS011;44775;51.564;5.460;2023-02-28T09:53:58;4.10;;;2.88;;
58472;SDS011;44775;51.564;5.460;2023-02-28T10:06:58;8.15;;;3.58;;
58472;SDS011;44775;51.564;5.460;2023-02-28T10:09:31;3.30;;;2.97;;
58472;SDS011;44775;51.564;5.460;2023-02-28T10:12:04;3.33;;;2.88;;
58472;SDS011;44775;51.564;5.460;2023-02-28T10:14:32;4.82;;;2.60;;
58472;SDS011;44775;51.564;5.460;2023-02-28T10:17:00;3.00;;;2.70;;
58472;SDS011;44775;51.564;5.460;2023-02-28T10:20:11;3.15;;;2.45;;
58472;SDS011;44775;51.564;5.460;2023-02-28T10:22:19;2.45;;;2.25;;
58472;SDS011;44775;51.564;5.460;2023-02-28T10:24:53;2.83;;;2.40;;
58472;SDS011;44775;51.564;5.460;2023-02-28T10:27:22;2.70;;;2.50;;
58472;SDS011;44775;51.564;5.460;2023-02-28T10:29:55;3.00;;;2.60;;
58472;SDS011;44775;51.564;5.460;2023-02-28T10:32:24;2.72;;;2.50;;
58472;SDS011;44775;51.564;5.460;2023-02-28T10:37:48;3.17;;;2.88;;
58472;SDS011;44775;51.564;5.460;2023-02-28T10:42:57;3.55;;;2.50;;
58472;SDS011;44775;51.564;5.460;2023-02-28T10:45:24;26.85;;;3.67;;
58472;SDS011;44775;51.564;5.460;2023-02-28T10:50:32;6.70;;;2.40;;
58472;SDS011;44775;51.564;5.460;2023-02-28T10:55:55;9.70;;;3.55;;
58472;SDS011;44775;51.564;5.460;2023-02-28T10:58:49;2.95;;;2.33;;
58472;SDS011;44775;51.564;5.460;2023-02-28T11:01:18;3.67;;;2.60;;
58472;SDS011;44775;51.564;5.460;2023-02-28T11:03:44;3.35;;;2.40;;
58472;SDS011;44775;51.564;5.460;2023-02-28T11:06:17;2.95;;;2.65;;
58472;SDS011;44775;51.564;5.460;2023-02-28T11:08:49;3.03;;;2.30;;
58472;SDS011;44775;51.564;5.460;2023-02-28T11:11:17;2.92;;;2.08;;
58472;SDS011;44775;51.564;5.460;2023-02-28T11:13:44;4.80;;;2.30;;
58472;SDS011;44775;51.564;5.460;2023-02-28T11:16:12;3.40;;;3.10;;
58472;SDS011;44775;51.564;5.460;2023-02-28T11:18:43;4.78;;;2.90;;
58472;SDS011;44775;51.564;5.460;2023-02-28T11:21:10;4.43;;;2.75;;
58472;SDS011;44775;51.564;5.460;2023-02-28T11:23:43;3.33;;;2.55;;
58472;SDS011;44775;51.564;5.460;2023-02-28T11:26:08;4.05;;;2.78;;
58472;SDS011;44775;51.564;5.460;2023-02-28T11:28:38;4.40;;;2.83;;
58472;SDS011;44775;51.564;5.460;2023-02-28T11:36:17;4.47;;;3.00;;
58472;SDS011;44775;51.564;5.460;2023-02-28T11:38:45;3.10;;;2.75;;
58472;SDS011;44775;51.564;5.460;2023-02-28T11:46:49;3.65;;;2.78;;
58472;SDS011;44775;51.564;5.460;2023-02-28T11:49:30;4.43;;;2.80;;
58472;SDS011;44775;51.564;5.460;2023-02-28T11:52:06;3.47;;;3.00;;
58472;SDS011;44775;51.564;5.460;2023-02-28T12:05:29;3.53;;;2.70;;
58472;SDS011;44775;51.564;5.460;2023-02-28T12:11:09;6.82;;;2.80;;
58472;SDS011;44775;51.564;5.460;2023-02-28T12:16:49;2.97;;;2.65;;
58472;SDS011;44775;51.564;5.460;2023-02-28T12:19:18;2.92;;;2.63;;
58472;SDS011;44775;51.564;5.460;2023-02-28T12:22:22;2.80;;;2.45;;
58472;SDS011;44775;51.564;5.460;2023-02-28T12:25:48;4.15;;;2.90;;
58472;SDS011;44775;51.564;5.460;2023-02-28T12:27:48;3.03;;;2.50;;
58472;SDS011;44775;51.564;5.460;2023-02-28T12:32:54;3.50;;;3.10;;
58472;SDS011;44775;51.564;5.460;2023-02-28T12:35:25;3.28;;;2.80;;
58472;SDS011;44775;51.564;5.460;2023-02-28T12:38:09;4.07;;;2.90;;
58472;SDS011;44775;51.564;5.460;2023-02-28T12:40:44;2.58;;;2.38;;
58472;SDS011;44775;51.564;5.460;2023-02-28T12:43:25;3.22;;;2.92;;
58472;SDS011;44775;51.564;5.460;2023-02-28T12:46:03;3.30;;;2.72;;
58472;SDS011;44775;51.564;5.460;2023-02-28T12:48:31;3.28;;;2.58;;
58472;SDS011;44775;51.564;5.460;2023-02-28T12:51:05;3.17;;;2.65;;
58472;SDS011;44775;51.564;5.460;2023-02-28T12:58:54;3.17;;;2.28;;
58472;SDS011;44775;51.564;5.460;2023-02-28T13:01:40;3.25;;;2.95;;
58472;SDS011;44775;51.564;5.460;2023-02-28T13:04:41;6.30;;;3.08;;
58472;SDS011;44775;51.564;5.460;2023-02-28T13:09:25;3.30;;;3.00;;
58472;SDS011;44775;51.564;5.460;2023-02-28T13:11:54;3.25;;;2.33;;
58472;SDS011;44775;51.564;5.460;2023-02-28T13:14:35;4.70;;;3.08;;
58472;SDS011;44775;51.564;5.460;2023-02-28T13:19:37;3.72;;;2.95;;
58472;SDS011;44775;51.564;5.460;2023-02-28T13:22:09;5.53;;;3.25;;
58472;SDS011;44775;51.564;5.460;2023-02-28T13:24:50;3.30;;;3.00;;
58472;SDS011;44775;51.564;5.460;2023-02-28T13:27:21;3.70;;;3.15;;
58472;SDS011;44775;51.564;5.460;2023-02-28T13:29:49;2.70;;;2.47;;
58472;SDS011;44775;51.564;5.460;2023-02-28T13:32:25;11.68;;;3.20;;
58472;SDS011;44775;51.564;5.460;2023-02-28T13:39:51;4.43;;;3.13;;
58472;SDS011;44775;51.564;5.460;2023-02-28T13:42:37;3.40;;;3.10;;
58472;SDS011;44775;51.564;5.460;2023-02-28T13:48:00;4.38;;;3.50;;
58472;SDS011;44775;51.564;5.460;2023-02-28T13:50:34;3.00;;;2.70;;
58472;SDS011;44775;51.564;5.460;2023-02-28T13:58:25;3.15;;;2.50;;
58472;SDS011;44775;51.564;5.460;2023-02-28T14:01:08;4.03;;;2.75;;
58472;SDS011;44775;51.564;5.460;2023-02-28T14:06:37;3.35;;;2.53;;
58472;SDS011;44775;51.564;5.460;2023-02-28T14:09:23;3.00;;;2.70;;
58472;SDS011;44775;51.564;5.460;2023-02-28T14:11:51;4.28;;;3.10;;
58472;SDS011;44775;51.564;5.460;2023-02-28T14:17:01;4.00;;;3.00;;
58472;SDS011;44775;51.564;5.460;2023-02-28T14:19:30;3.80;;;3.20;;
58472;SDS011;44775;51.564;5.460;2023-02-28T14:32:30;3.97;;;3.53;;
58472;SDS011;44775;51.564;5.460;2023-02-28T14:35:10;4.85;;;3.70;;
58472;SDS011;44775;51.564;5.460;2023-02-28T14:37:45;4.15;;;3.70;;
58472;SDS011;44775;51.564;5.460;2023-02-28T14:40:12;4.00;;;3.53;;
58472;SDS011;44775;51.564;5.460;2023-02-28T14:42:46;4.97;;;3.83;;
58472;SDS011;44775;51.564;5.460;2023-02-28T14:45:19;5.45;;;3.85;;
58472;SDS011;44775;51.564;5.460;2023-02-28T14:47:46;5.93;;;3.65;;
58472;SDS011;44775;51.564;5.460;2023-02-28T14:50:17;4.30;;;3.20;;
58472;SDS011;44775;51.564;5.460;2023-02-28T14:52:47;4.80;;;3.50;;
58472;SDS011;44775;51.564;5.460;2023-02-28T14:55:17;4.28;;;3.35;;
58472;SDS011;44775;51.564;5.460;2023-02-28T15:54:58;5.18;;;4.32;;
58472;SDS011;44775;51.564;5.460;2023-02-28T16:03:49;6.10;;;4.85;;
58472;SDS011;44775;51.564;5.460;2023-02-28T16:08:51;3.90;;;3.50;;
58472;SDS011;44775;51.564;5.460;2023-02-28T16:11:18;9.38;;;4.97;;
58472;SDS011;44775;51.564;5.460;2023-02-28T16:13:45;5.82;;;5.20;;
58472;SDS011;44775;51.564;5.460;2023-02-28T16:16:14;6.22;;;4.97;;
58472;SDS011;44775;51.564;5.460;2023-02-28T16:18:42;5.93;;;5.00;;
58472;SDS011;44775;51.564;5.460;2023-02-28T16:21:08;6.60;;;5.15;;
58472;SDS011;44775;51.564;5.460;2023-02-28T16:23:33;4.95;;;4.45;;
58472;SDS011;44775;51.564;5.460;2023-02-28T16:25:58;4.20;;;3.50;;
58472;SDS011;44775;51.564;5.460;2023-02-28T16:28:25;5.60;;;4.65;;
58472;SDS011;44775;51.564;5.460;2023-02-28T16:30:56;5.57;;;4.63;;
58472;SDS011;44775;51.564;5.460;2023-02-28T16:33:21;6.30;;;4.88;;
58472;SDS011;44775;51.564;5.460;2023-02-28T16:35:46;4.55;;;4.05;;
58472;SDS011;44775;51.564;5.460;2023-02-28T16:38:12;5.85;;;4.40;;
58472;SDS011;44775;51.564;5.460;2023-02-28T16:40:37;8.52;;;5.40;;
58472;SDS011;44775;51.564;5.460;2023-02-28T16:43:05;12.82;;;6.85;;
58472;SDS011;44775;51.564;5.460;2023-02-28T16:45:40;6.00;;;5.13;;
58472;SDS011;44775;51.564;5.460;2023-02-28T16:48:07;6.65;;;4.80;;
58472;SDS011;44775;51.564;5.460;2023-02-28T16:50:37;5.93;;;4.85;;
58472;SDS011;44775;51.564;5.460;2023-02-28T16:53:03;6.53;;;5.30;;
58472;SDS011;44775;51.564;5.460;2023-02-28T16:55:29;7.28;;;5.05;;
58472;SDS011;44775;51.564;5.460;2023-02-28T16:57:55;6.32;;;5.30;;
58472;SDS011;44775;51.564;5.460;2023-02-28T17:00:22;8.32;;;5.32;;
58472;SDS011;44775;51.564;5.460;2023-02-28T17:02:49;7.32;;;5.50;;
58472;SDS011;44775;51.564;5.460;2023-02-28T17:05:15;5.45;;;4.95;;
58472;SDS011;44775;51.564;5.460;2023-02-28T17:07:41;6.85;;;5.65;;
58472;SDS011;44775;51.564;5.460;2023-02-28T17:10:14;6.97;;;5.57;;
58472;SDS011;44775;51.564;5.460;2023-02-28T17:12:41;6.38;;;5.35;;
58472;SDS011;44775;51.564;5.460;2023-02-28T17:15:08;6.95;;;5.43;;
58472;SDS011;44775;51.564;5.460;2023-02-28T17:17:35;5.95;;;5.25;;
58472;SDS011;44775;51.564;5.460;2023-02-28T17:20:01;7.80;;;5.72;;
58472;SDS011;44775;51.564;5.460;2023-02-28T17:22:27;6.75;;;5.60;;
58472;SDS011;44775;51.564;5.460;2023-02-28T17:24:52;7.40;;;5.68;;
58472;SDS011;44775;51.564;5.460;2023-02-28T17:27:20;6.93;;;5.50;;
58472;SDS011;44775;51.564;5.460;2023-02-28T17:29:46;7.32;;;5.65;;
58472;SDS011;44775;51.564;5.460;2023-02-28T17:32:12;7.00;;;5.80;;
58472;SDS011;44775;51.564;5.460;2023-02-28T17:34:37;6.82;;;5.88;;
58472;SDS011;44775;51.564;5.460;2023-02-28T17:37:03;10.82;;;5.95;;
58472;SDS011;44775;51.564;5.460;2023-02-28T17:39:28;6.80;;;6.07;;
58472;SDS011;44775;51.564;5.460;2023-02-28T17:41:55;8.63;;;6.00;;
58472;SDS011;44775;51.564;5.460;2023-02-28T17:44:22;6.80;;;6.07;;
58472;SDS011;44775;51.564;5.460;2023-02-28T17:46:48;7.85;;;6.07;;
58472;SDS011;44775;51.564;5.460;2023-02-28T17:49:15;8.63;;;6.28;;
58472;SDS011;44775;51.564;5.460;2023-02-28T17:51:41;10.32;;;6.13;;
58472;SDS011;44775;51.564;5.460;2023-02-28T17:54:06;9.35;;;6.55;;
58472;SDS011;44775;51.564;5.460;2023-02-28T17:56:32;9.38;;;6.60;;
58472;SDS011;44775;51.564;5.460;2023-02-28T17:58:57;7.45;;;6.10;;
58472;SDS011;44775;51.564;5.460;2023-02-28T18:01:23;8.30;;;6.68;;